Volga-4011 — UBNJ — position and weather

sailwx.info

Track history (hours):
 
Tides and Currents Weather Stations Pressure Air Temp Water Temp Dewpoint Dewpoint Depression Visibility Wind Speed Wind Dir Waves Ship Positions

Volga-4011

Last reported at 2014-Oct-01 20:08 UTC. Time now 2014-Oct-01 22:22 UTC.
Position N 31°45' E 121°02'.

Length 140 m; draft 4 m.

Type: Cargo ship. MMSI: 273358200.

Date/timePositionNaut miles runAvg speedWind from/ knotsBaromVisibWave heightAir tempDewpointWater temp
2014-Oct-01 20:08N 31°45' E 121°02'0 0.0
2014-Oct-01 17:09N 31°45' E 121°02'0 0.0
2014-Oct-01 15:17N 31°45' E 121°02'0 0.0
2014-Oct-01 14:29N 31°45' E 121°02'0 0.0
2014-Oct-01 12:25N 31°45' E 121°02'0 0.0
2014-Oct-01 10:20N 31°45' E 121°02'0 0.1
2014-Oct-01 06:33N 31°45' E 121°02'4 1.8
2014-Oct-01 04:14N 31°44' E 121°07'0 0.0
2014-Sep-30 23:29N 31°44' E 121°07'0 0.1
2014-Sep-30 21:31N 31°44' E 121°07'0 0.0
2014-Sep-30 20:13N 31°44' E 121°07'0 0.1
2014-Sep-30 18:27N 31°44' E 121°07'0 0.0
2014-Sep-30 17:27N 31°44' E 121°07'0 0.0
2014-Sep-30 16:28N 31°44' E 121°07'0 0.0
2014-Sep-30 15:28N 31°44' E 121°07'0 0.0
2014-Sep-30 14:12N 31°44' E 121°07'0 0.0
2014-Sep-30 13:06N 31°44' E 121°07'0 0.0
2014-Sep-30 12:25N 31°44' E 121°07'0 0.0
2014-Sep-30 11:19N 31°44' E 121°07'0 0.0
2014-Sep-30 10:14N 31°44' E 121°07'0 0.1
2014-Sep-30 09:21N 31°44' E 121°07'0 0.1
2014-Sep-30 08:21N 31°44' E 121°07'0 0.1
2014-Sep-30 07:04N 31°44' E 121°07'0 0.1
2014-Sep-30 06:28N 31°44' E 121°07'0 0.0
2014-Sep-30 05:11N 31°44' E 121°07'0 0.0
2014-Sep-30 04:18N 31°44' E 121°07'0 0.0
2014-Sep-30 03:19N 31°44' E 121°07'0 0.0
2014-Sep-30 02:31N 31°44' E 121°07'4 2.0
2014-Sep-30 00:23N 31°45' E 121°02'0 0.0
2014-Sep-29 20:26N 31°45' E 121°02'0 0.0
2014-Sep-29 18:27N 31°45' E 121°02'0 0.0
2014-Sep-29 17:28N 31°45' E 121°02'0 0.0
2014-Sep-29 16:22N 31°45' E 121°02'0 0.0
2014-Sep-29 14:18N 31°45' E 121°02'1283555.9
2014-Sep-29 12:00N 45°42' E 141°48'1283334.9 350 / 231012.710.8 1.015.5 14.0
2014-Sep-29 08:10N 31°45' E 121°02'0 0.0
2014-Sep-29 06:23N 31°45' E 121°02'0 0.0
2014-Sep-29 02:31N 31°45' E 121°02'0 0.0
2014-Sep-29 00:27N 31°45' E 121°02'0 0.0
2014-Sep-28 23:05N 31°45' E 121°02'2 3.6
2014-Sep-28 22:28N 31°44' E 121°05'7 7.6
2014-Sep-28 21:32N 31°40' E 121°12'8 8.3
2014-Sep-28 20:33N 31°35' E 121°19'9 8.9
2014-Sep-28 19:32N 31°29' E 121°27'8 8.0
2014-Sep-28 18:33N 31°24' E 121°34'8 7.8
2014-Sep-28 17:33N 31°20' E 121°42'43 8.5
2014-Sep-28 12:29N 31°01' E 122°27'9 7.0
2014-Sep-28 11:14N 31°02' E 122°37'81 4.8
2014-Sep-27 18:26N 31°41' E 123°59'  
Track history (hours):
 
Tides and Currents Weather Stations Pressure Air Temp Water Temp Dewpoint Dewpoint Depression Visibility Wind Speed Wind Dir Waves Ship Positions

Volga-4011

Last reported at 2014-Oct-01 20:08 UTC. Time now 2014-Oct-01 22:22 UTC.
Position N 31°45' E 121°02'.

Length 140 m; draft 4 m.

Type: Cargo ship. MMSI: 273358200.

Date/timePositionNaut miles runAvg speedWind from/ knotsBaromVisibWave heightAir tempDewpointWater temp
2014-Oct-01 20:08N 31°45' E 121°02'0 0.0
2014-Oct-01 17:09N 31°45' E 121°02'0 0.0
2014-Oct-01 15:17N 31°45' E 121°02'0 0.0
2014-Oct-01 14:29N 31°45' E 121°02'0 0.0
2014-Oct-01 12:25N 31°45' E 121°02'0 0.0
2014-Oct-01 10:20N 31°45' E 121°02'0 0.1
2014-Oct-01 06:33N 31°45' E 121°02'4 1.8
2014-Oct-01 04:14N 31°44' E 121°07'0 0.0
2014-Sep-30 23:29N 31°44' E 121°07'0 0.1
2014-Sep-30 21:31N 31°44' E 121°07'0 0.0
2014-Sep-30 20:13N 31°44' E 121°07'0 0.1
2014-Sep-30 18:27N 31°44' E 121°07'0 0.0
2014-Sep-30 17:27N 31°44' E 121°07'0 0.0
2014-Sep-30 16:28N 31°44' E 121°07'0 0.0
2014-Sep-30 15:28N 31°44' E 121°07'0 0.0
2014-Sep-30 14:12N 31°44' E 121°07'0 0.0
2014-Sep-30 13:06N 31°44' E 121°07'0 0.0
2014-Sep-30 12:25N 31°44' E 121°07'0 0.0
2014-Sep-30 11:19N 31°44' E 121°07'0 0.0
2014-Sep-30 10:14N 31°44' E 121°07'0 0.1
2014-Sep-30 09:21N 31°44' E 121°07'0 0.1
2014-Sep-30 08:21N 31°44' E 121°07'0 0.1
2014-Sep-30 07:04N 31°44' E 121°07'0 0.1
2014-Sep-30 06:28N 31°44' E 121°07'0 0.0
2014-Sep-30 05:11N 31°44' E 121°07'0 0.0
2014-Sep-30 04:18N 31°44' E 121°07'0 0.0
2014-Sep-30 03:19N 31°44' E 121°07'0 0.0
2014-Sep-30 02:31N 31°44' E 121°07'4 2.0
2014-Sep-30 00:23N 31°45' E 121°02'0 0.0
2014-Sep-29 20:26N 31°45' E 121°02'0 0.0
2014-Sep-29 18:27N 31°45' E 121°02'0 0.0
2014-Sep-29 17:28N 31°45' E 121°02'0 0.0
2014-Sep-29 16:22N 31°45' E 121°02'0 0.0
2014-Sep-29 14:18N 31°45' E 121°02'1283555.9
2014-Sep-29 12:00N 45°42' E 141°48'1283334.9 350 / 231012.710.8 1.015.5 14.0
2014-Sep-29 08:10N 31°45' E 121°02'0 0.0
2014-Sep-29 06:23N 31°45' E 121°02'0 0.0
2014-Sep-29 02:31N 31°45' E 121°02'0 0.0
2014-Sep-29 00:27N 31°45' E 121°02'0 0.0
2014-Sep-28 23:05N 31°45' E 121°02'2 3.6
2014-Sep-28 22:28N 31°44' E 121°05'7 7.6
2014-Sep-28 21:32N 31°40' E 121°12'8 8.3
2014-Sep-28 20:33N 31°35' E 121°19'9 8.9
2014-Sep-28 19:32N 31°29' E 121°27'8 8.0
2014-Sep-28 18:33N 31°24' E 121°34'8 7.8
2014-Sep-28 17:33N 31°20' E 121°42'43 8.5
2014-Sep-28 12:29N 31°01' E 122°27'9 7.0
2014-Sep-28 11:14N 31°02' E 122°37'81 4.8
2014-Sep-27 18:26N 31°41' E 123°59'  

Dump ship's entire track history